createdAt,value
2019-06-20T00:00:33.037Z,58
2019-06-20T00:01:33.052Z,58
2019-06-20T00:02:33.118Z,58
2019-06-20T00:03:33.129Z,59
2019-06-20T00:04:33.157Z,58
2019-06-20T00:05:33.207Z,57
2019-06-20T00:06:33.271Z,55
2019-06-20T00:07:33.388Z,56
2019-06-20T00:08:33.369Z,58
2019-06-20T00:09:33.373Z,57
2019-06-20T00:10:33.374Z,57
2019-06-20T00:11:33.411Z,57
2019-06-20T00:12:33.487Z,57
2019-06-20T00:13:33.522Z,56
2019-06-20T00:14:33.579Z,57
2019-06-20T00:15:33.636Z,58
2019-06-20T00:16:33.708Z,59
2019-06-20T00:17:33.754Z,59
2019-06-20T00:18:33.811Z,58
2019-06-20T00:19:33.774Z,57
2019-06-20T00:20:33.828Z,58
2019-06-20T00:21:33.795Z,57
2019-06-20T00:22:33.894Z,57
2019-06-20T00:23:33.909Z,58
2019-06-20T00:24:33.992Z,59
2019-06-20T00:25:34.006Z,59
2019-06-20T00:26:34.005Z,58
2019-06-20T00:27:34.073Z,58
2019-06-20T00:28:34.136Z,58
2019-06-20T00:29:34.202Z,58
2019-06-20T00:30:34.233Z,59
2019-06-20T00:31:34.214Z,59
2019-06-20T00:32:34.252Z,58
2019-06-20T00:33:34.263Z,58
2019-06-20T00:34:34.337Z,59
2019-06-20T00:35:34.367Z,59
2019-06-20T00:36:34.478Z,58
2019-06-20T00:37:34.469Z,59
2019-06-20T00:38:34.487Z,59
2019-06-20T00:39:34.557Z,59
2019-06-20T00:40:34.610Z,60
2019-06-20T00:41:34.621Z,60
2019-06-20T00:42:34.682Z,61
2019-06-20T00:43:34.704Z,61
2019-06-20T00:44:34.732Z,61
2019-06-20T00:45:34.723Z,61
2019-06-20T00:46:34.800Z,61
2019-06-20T00:47:34.827Z,61
2019-06-20T00:48:34.873Z,61
2019-06-20T00:49:34.864Z,61
2019-06-20T00:50:34.900Z,62
2019-06-20T00:51:34.964Z,62
2019-06-20T00:52:34.969Z,62
2019-06-20T00:53:35.019Z,63
2019-06-20T00:54:34.994Z,63
2019-06-20T00:55:35.025Z,64
2019-06-20T00:56:35.055Z,65
2019-06-20T00:57:35.123Z,66
2019-06-20T00:58:35.137Z,67
2019-06-20T00:59:35.163Z,67
2019-06-20T01:00:35.212Z,67
2019-06-20T01:01:35.230Z,66
2019-06-20T01:02:35.305Z,65
2019-06-20T01:03:35.307Z,65
2019-06-20T01:04:35.292Z,65
2019-06-20T01:05:35.331Z,65
2019-06-20T01:06:35.367Z,65
2019-06-20T01:07:35.392Z,65
2019-06-20T01:08:35.434Z,65
2019-06-20T01:09:35.438Z,64
2019-06-20T01:10:35.485Z,65
2019-06-20T01:11:35.495Z,65
2019-06-20T01:12:35.493Z,66
2019-06-20T01:13:35.510Z,66
2019-06-20T01:14:35.546Z,65
2019-06-20T01:15:35.541Z,65
2019-06-20T01:16:35.604Z,65
2019-06-20T01:17:35.582Z,65
2019-06-20T01:18:35.632Z,65
2019-06-20T01:19:35.624Z,66
2019-06-20T01:20:35.612Z,65
2019-06-20T01:21:35.652Z,65
2019-06-20T01:22:35.665Z,65
2019-06-20T01:23:35.688Z,65
2019-06-20T01:24:35.690Z,65
2019-06-20T01:25:35.711Z,66
2019-06-20T01:26:35.776Z,65
2019-06-20T01:27:35.738Z,66
2019-06-20T01:28:35.768Z,66
2019-06-20T01:29:35.745Z,66
2019-06-20T01:30:35.768Z,67
2019-06-20T01:31:35.782Z,67
2019-06-20T01:32:35.836Z,67
2019-06-20T01:33:35.801Z,67
2019-06-20T01:34:35.796Z,66
2019-06-20T01:35:35.822Z,66
2019-06-20T01:36:35.831Z,66
2019-06-20T01:37:35.831Z,66
2019-06-20T01:38:35.844Z,67
2019-06-20T01:39:35.833Z,67
2019-06-20T01:40:35.903Z,66
2019-06-20T01:41:35.865Z,67
2019-06-20T01:42:35.864Z,67
2019-06-20T01:43:49.355Z,67
2019-06-20T01:44:35.982Z,67
2019-06-20T01:45:35.970Z,67
2019-06-20T01:46:35.989Z,67
2019-06-20T01:47:36.034Z,67
2019-06-20T01:48:36.090Z,68
2019-06-20T01:49:36.071Z,68
2019-06-20T01:50:36.090Z,68
2019-06-20T01:51:36.069Z,68
2019-06-20T01:52:36.145Z,69
2019-06-20T01:53:36.215Z,69
2019-06-20T01:54:36.261Z,69
2019-06-20T01:55:36.296Z,69
2019-06-20T01:56:36.310Z,69
2019-06-20T01:57:36.307Z,69
2019-06-20T01:58:36.403Z,70
2019-06-20T01:59:36.420Z,69
2019-06-20T02:00:36.458Z,69
2019-06-20T02:01:36.519Z,69
2019-06-20T02:02:36.550Z,69
2019-06-20T02:03:36.572Z,69
2019-06-20T02:04:36.580Z,71
2019-06-20T02:05:36.636Z,72
2019-06-20T02:06:36.680Z,72
2019-06-20T02:07:36.664Z,72
2019-06-20T02:08:36.661Z,73
2019-06-20T02:09:36.748Z,73
2019-06-20T02:10:36.786Z,72
2019-06-20T02:11:36.846Z,73
2019-06-20T02:12:36.851Z,72
2019-06-20T02:13:36.888Z,71
2019-06-20T02:14:36.945Z,71
2019-06-20T02:15:36.979Z,71
2019-06-20T02:16:37.059Z,70
2019-06-20T02:17:37.075Z,70
2019-06-20T02:18:37.121Z,70
2019-06-20T02:19:37.205Z,70
2019-06-20T02:20:37.221Z,70
2019-06-20T02:21:37.277Z,70
2019-06-20T02:22:37.323Z,70
2019-06-20T02:23:37.365Z,70
2019-06-20T02:24:37.416Z,70
2019-06-20T02:25:37.433Z,70
2019-06-20T02:26:37.522Z,70
2019-06-20T02:27:37.547Z,70
2019-06-20T02:28:37.559Z,70
2019-06-20T02:29:37.572Z,70
2019-06-20T02:30:37.590Z,70
2019-06-20T02:31:37.685Z,70
2019-06-20T02:32:37.723Z,70
2019-06-20T02:33:37.774Z,70
2019-06-20T02:34:37.767Z,70
2019-06-20T02:35:37.794Z,70
2019-06-20T02:36:37.873Z,70
2019-06-20T02:37:37.888Z,71
2019-06-20T02:38:37.943Z,71
2019-06-20T02:39:38.007Z,71
2019-06-20T02:40:37.993Z,70
2019-06-20T02:41:38.050Z,71
2019-06-20T02:42:38.064Z,70
2019-06-20T02:43:38.119Z,70
2019-06-20T02:44:38.153Z,70
2019-06-20T02:45:38.208Z,70
2019-06-20T02:46:38.224Z,70
2019-06-20T02:47:38.250Z,70
2019-06-20T02:48:38.287Z,70
2019-06-20T02:49:38.336Z,70
2019-06-20T02:50:38.397Z,70
2019-06-20T02:51:38.359Z,70
2019-06-20T02:52:38.409Z,71
2019-06-20T02:53:38.439Z,70
2019-06-20T02:54:38.487Z,71
2019-06-20T02:55:38.508Z,71
2019-06-20T02:56:38.520Z,71
2019-06-20T02:57:38.547Z,71
2019-06-20T02:58:38.564Z,71
2019-06-20T02:59:38.614Z,71
2019-06-20T03:00:38.596Z,71
2019-06-20T03:01:38.616Z,71
2019-06-20T03:02:38.653Z,71
2019-06-20T03:03:38.677Z,71
2019-06-20T03:04:38.712Z,71
2019-06-20T03:05:38.720Z,71
2019-06-20T03:06:38.728Z,71
2019-06-20T03:07:38.765Z,71
2019-06-20T03:08:38.789Z,71
2019-06-20T03:09:38.789Z,71
2019-06-20T03:10:38.795Z,71
2019-06-20T03:11:38.826Z,72
2019-06-20T03:12:38.837Z,71
2019-06-20T03:13:38.874Z,71
2019-06-20T03:14:45.225Z,71
2019-06-20T03:15:38.914Z,71
2019-06-20T03:16:38.911Z,71
2019-06-20T03:17:38.926Z,71
2019-06-20T03:18:38.986Z,71
2019-06-20T03:19:38.968Z,71
2019-06-20T03:20:38.972Z,71
2019-06-20T03:21:38.986Z,71
2019-06-20T03:22:38.999Z,71
2019-06-20T03:23:39.033Z,71
2019-06-20T03:24:39.023Z,70
2019-06-20T03:25:39.085Z,70
2019-06-20T03:26:39.060Z,71
2019-06-20T03:27:39.072Z,71
2019-06-20T03:28:39.063Z,72
2019-06-20T03:29:39.102Z,71
2019-06-20T03:30:39.090Z,71
2019-06-20T03:31:39.082Z,72
2019-06-20T03:32:39.099Z,72
2019-06-20T03:33:39.103Z,72
2019-06-20T03:34:39.132Z,73
2019-06-20T03:35:39.129Z,73
2019-06-20T03:36:39.111Z,73
2019-06-20T03:37:39.118Z,73
2019-06-20T03:38:39.129Z,72
2019-06-20T03:39:39.141Z,72
2019-06-20T03:40:39.213Z,73
2019-06-20T03:41:40.306Z,73
2019-06-20T03:42:39.303Z,73
2019-06-20T03:43:39.358Z,73
2019-06-20T03:44:39.395Z,73
2019-06-20T03:45:39.463Z,73
2019-06-20T03:46:39.653Z,73
2019-06-20T03:47:39.659Z,73
2019-06-20T03:48:39.645Z,73
2019-06-20T03:49:41.884Z,73
2019-06-20T03:50:39.685Z,73
2019-06-20T03:51:39.676Z,73
2019-06-20T03:52:39.778Z,73
2019-06-20T03:53:39.775Z,74
2019-06-20T03:54:39.896Z,74
2019-06-20T03:55:39.882Z,74
2019-06-20T03:56:39.919Z,74
2019-06-20T03:57:39.941Z,73
2019-06-20T03:58:39.976Z,73
2019-06-20T03:59:40.019Z,72
2019-06-20T04:00:40.162Z,72
2019-06-20T04:01:40.063Z,72
2019-06-20T04:02:40.135Z,72
2019-06-20T04:03:40.214Z,72
2019-06-20T04:04:40.213Z,72
2019-06-20T04:05:40.264Z,73
2019-06-20T04:06:40.314Z,73
2019-06-20T04:07:40.403Z,73
2019-06-20T04:08:40.395Z,73
2019-06-20T04:09:40.401Z,73
2019-06-20T04:10:40.455Z,73
2019-06-20T04:11:40.506Z,73
2019-06-20T04:12:40.567Z,73
2019-06-20T04:13:40.617Z,73
2019-06-20T04:14:40.621Z,74
2019-06-20T04:15:40.688Z,73
2019-06-20T04:16:42.981Z,72
2019-06-20T04:17:40.786Z,72
2019-06-20T04:18:40.826Z,73
2019-06-20T04:19:40.869Z,74
2019-06-20T04:20:40.896Z,74
2019-06-20T04:21:40.938Z,74
2019-06-20T04:22:41.004Z,74
2019-06-20T04:23:41.024Z,74
2019-06-20T04:24:41.079Z,73
2019-06-20T04:25:41.056Z,73
2019-06-20T04:26:41.088Z,73
2019-06-20T04:27:41.136Z,73
2019-06-20T04:28:41.178Z,73
2019-06-20T04:29:41.255Z,72
2019-06-20T04:30:41.258Z,73
2019-06-20T04:31:41.308Z,73
2019-06-20T04:32:41.336Z,74
2019-06-20T04:33:41.345Z,74
2019-06-20T04:34:41.405Z,73
2019-06-20T04:35:41.429Z,73
2019-06-20T04:36:41.477Z,73
2019-06-20T04:37:41.554Z,75
2019-06-20T04:38:41.574Z,77
2019-06-20T04:39:41.610Z,77
2019-06-20T04:40:41.568Z,75
2019-06-20T04:41:41.642Z,73
2019-06-20T04:42:43.940Z,72
2019-06-20T04:43:41.643Z,72
2019-06-20T04:44:41.678Z,72
2019-06-20T04:45:41.732Z,72
2019-06-20T04:46:41.738Z,72
2019-06-20T04:47:41.777Z,72
2019-06-20T04:48:41.861Z,72
2019-06-20T04:49:41.837Z,73
2019-06-20T04:50:41.850Z,73
2019-06-20T04:51:41.860Z,75
2019-06-20T04:52:41.896Z,74
2019-06-20T04:53:41.944Z,73
2019-06-20T04:54:41.944Z,73
2019-06-20T04:55:41.968Z,74
2019-06-20T04:56:42.015Z,73
2019-06-20T04:57:42.066Z,70
2019-06-20T04:58:42.082Z,71
2019-06-20T04:59:42.125Z,71
2019-06-20T05:00:42.123Z,72
2019-06-20T05:01:42.112Z,73
2019-06-20T05:02:42.170Z,74
2019-06-20T05:03:42.161Z,74
2019-06-20T05:04:42.334Z,74
2019-06-20T05:05:42.180Z,74
2019-06-20T05:06:42.365Z,71
2019-06-20T05:07:42.193Z,70
2019-06-20T05:08:42.212Z,71
2019-06-20T05:09:42.484Z,71
2019-06-20T05:10:42.255Z,71
2019-06-20T05:11:42.256Z,71
2019-06-20T05:12:42.305Z,72
2019-06-20T05:13:42.254Z,69
2019-06-20T05:14:42.305Z,69
2019-06-20T05:15:51.822Z,71
2019-06-20T05:16:42.281Z,69
2019-06-20T05:17:43.359Z,70
2019-06-20T05:18:42.293Z,71
2019-06-20T05:19:42.373Z,71
2019-06-20T05:20:42.325Z,70
2019-06-20T05:21:42.325Z,68
2019-06-20T05:22:42.322Z,69
2019-06-20T05:23:42.316Z,68
2019-06-20T05:24:42.339Z,69
2019-06-20T05:25:42.324Z,69
2019-06-20T05:26:42.363Z,68
2019-06-20T05:27:45.840Z,68
2019-06-20T05:28:43.348Z,68
2019-06-20T05:29:42.380Z,68
2019-06-20T05:30:42.458Z,67
2019-06-20T05:31:49.656Z,67
2019-06-20T05:32:42.532Z,66
2019-06-20T05:33:42.536Z,68
2019-06-20T05:34:42.619Z,69
2019-06-20T05:35:42.754Z,68
2019-06-20T05:36:42.726Z,70
2019-06-20T05:37:42.783Z,68
2019-06-20T05:38:42.825Z,70
2019-06-20T05:39:42.886Z,69
2019-06-20T05:40:43.153Z,68
2019-06-20T05:41:42.937Z,67
2019-06-20T05:42:42.958Z,69
2019-06-20T05:43:43.031Z,69
2019-06-20T05:44:43.077Z,69
2019-06-20T05:45:45.121Z,69
2019-06-20T05:46:43.196Z,70
2019-06-20T05:47:43.342Z,71
2019-06-20T05:48:43.407Z,71
2019-06-20T05:49:43.329Z,71
2019-06-20T05:50:43.335Z,71
2019-06-20T05:51:43.321Z,70
2019-06-20T05:52:43.362Z,71
2019-06-20T05:53:43.401Z,72
2019-06-20T05:54:43.449Z,73
2019-06-20T05:55:43.434Z,73
2019-06-20T05:56:43.656Z,73
2019-06-20T05:57:43.567Z,72
2019-06-20T05:58:43.605Z,73
2019-06-20T05:59:43.678Z,72
2019-06-20T06:00:43.715Z,72
2019-06-20T06:01:43.763Z,72
2019-06-20T06:02:43.808Z,72
2019-06-20T06:03:43.805Z,71
2019-06-20T06:04:43.949Z,72
2019-06-20T06:05:43.881Z,72
2019-06-20T06:06:43.922Z,73
2019-06-20T06:07:43.973Z,74
2019-06-20T06:08:44.014Z,74
2019-06-20T06:09:45.536Z,73
2019-06-20T06:10:44.192Z,73
2019-06-20T06:11:44.154Z,72
2019-06-20T06:12:45.195Z,73
2019-06-20T06:13:44.196Z,72
2019-06-20T06:14:44.218Z,71
2019-06-20T06:15:44.246Z,73
2019-06-20T06:16:44.391Z,74
2019-06-20T06:17:44.414Z,73
2019-06-20T06:18:44.393Z,73
2019-06-20T06:19:44.466Z,73
2019-06-20T06:20:44.989Z,73
2019-06-20T06:21:44.526Z,73
2019-06-20T06:22:44.922Z,73
2019-06-20T06:23:44.681Z,73
2019-06-20T06:24:44.664Z,73
2019-06-20T06:25:44.843Z,74
2019-06-20T06:26:44.708Z,75
2019-06-20T06:27:44.779Z,74
2019-06-20T06:28:44.807Z,75
2019-06-20T06:29:44.837Z,74
2019-06-20T06:30:44.874Z,74
2019-06-20T06:31:44.902Z,72
2019-06-20T06:32:44.947Z,73
2019-06-20T06:33:45.044Z,74
2019-06-20T06:34:45.001Z,74
2019-06-20T06:35:45.033Z,74
2019-06-20T06:36:45.036Z,74
2019-06-20T06:37:45.057Z,73
2019-06-20T06:38:45.130Z,69
2019-06-20T06:39:45.138Z,69
2019-06-20T06:40:45.185Z,68
2019-06-20T06:41:45.224Z,69
2019-06-20T06:42:45.241Z,71
2019-06-20T06:43:45.239Z,73
2019-06-20T06:44:45.257Z,72
2019-06-20T06:45:45.299Z,72
2019-06-20T06:46:52.939Z,72
2019-06-20T06:47:45.329Z,72
2019-06-20T06:48:45.366Z,71
2019-06-20T06:49:45.338Z,71
2019-06-20T06:50:45.390Z,74
2019-06-20T06:51:45.393Z,74
2019-06-20T06:52:45.439Z,73
2019-06-20T06:53:45.420Z,71
2019-06-20T06:54:45.468Z,71
2019-06-20T06:55:45.484Z,70
2019-06-20T06:56:45.595Z,71
2019-06-20T06:57:45.560Z,72
2019-06-20T06:58:45.549Z,72
2019-06-20T06:59:45.584Z,71
2019-06-20T07:00:45.583Z,71
2019-06-20T07:01:45.619Z,69
2019-06-20T07:02:45.634Z,70
2019-06-20T07:03:45.622Z,69
2019-06-20T07:04:45.648Z,69
2019-06-20T07:05:45.669Z,68
2019-06-20T07:06:45.663Z,66
2019-06-20T07:07:45.693Z,67
2019-06-20T07:08:45.693Z,68
2019-06-20T07:09:45.692Z,65
2019-06-20T07:10:45.695Z,65
2019-06-20T07:11:45.729Z,65
2019-06-20T07:12:45.780Z,63
2019-06-20T07:13:45.755Z,64
2019-06-20T07:14:45.744Z,65
2019-06-20T07:15:45.869Z,65
2019-06-20T07:16:59.390Z,67
2019-06-20T07:17:46.814Z,70
2019-06-20T07:18:45.778Z,70
2019-06-20T07:19:45.772Z,69
2019-06-20T07:20:45.760Z,68
2019-06-20T07:21:45.821Z,66
2019-06-20T07:22:45.958Z,66
2019-06-20T07:23:45.931Z,66
2019-06-20T07:24:46.040Z,62
2019-06-20T07:25:46.090Z,65
2019-06-20T07:26:46.089Z,65
2019-06-20T07:27:47.953Z,66
2019-06-20T07:28:46.141Z,66
2019-06-20T07:29:46.259Z,65
2019-06-20T07:30:46.437Z,64
2019-06-20T07:31:46.527Z,63
2019-06-20T07:32:46.398Z,64
2019-06-20T07:33:46.435Z,65
2019-06-20T07:34:46.502Z,65
2019-06-20T07:35:46.580Z,65
2019-06-20T07:36:46.586Z,63
2019-06-20T07:37:46.683Z,64
2019-06-20T07:38:46.733Z,65
2019-06-20T07:39:46.744Z,65
2019-06-20T07:40:46.756Z,65
2019-06-20T07:41:46.809Z,65
2019-06-20T07:42:46.835Z,65
2019-06-20T07:43:46.891Z,64
2019-06-20T07:44:46.923Z,64
2019-06-20T07:46:01.381Z,66
2019-06-20T07:46:47.015Z,65
2019-06-20T07:47:47.052Z,63
2019-06-20T07:48:47.121Z,65
2019-06-20T07:49:47.179Z,61
2019-06-20T07:50:47.239Z,61
2019-06-20T07:51:47.285Z,60
2019-06-20T07:53:01.197Z,61
2019-06-20T07:53:47.377Z,60
2019-06-20T07:54:47.420Z,58
2019-06-20T07:55:47.486Z,57
2019-06-20T07:56:47.606Z,58
2019-06-20T07:57:47.558Z,58
2019-06-20T07:58:47.606Z,57
2019-06-20T07:59:47.633Z,57
2019-06-20T08:00:47.679Z,58
2019-06-20T08:01:47.736Z,56
2019-06-20T08:02:47.745Z,55
2019-06-20T08:03:47.847Z,56
2019-06-20T08:04:47.825Z,55
2019-06-20T08:05:47.858Z,55
2019-06-20T08:06:47.914Z,56
2019-06-20T08:07:47.965Z,58
2019-06-20T08:08:48.035Z,58
2019-06-20T08:09:48.041Z,59
2019-06-20T08:10:48.088Z,60
2019-06-20T08:11:49.097Z,59
2019-06-20T08:12:48.082Z,59
2019-06-20T08:13:48.124Z,60
2019-06-20T08:14:48.188Z,59
2019-06-20T08:15:48.210Z,61
2019-06-20T08:16:48.305Z,61
2019-06-20T08:17:48.319Z,62
2019-06-20T08:18:48.321Z,63
2019-06-20T08:19:48.363Z,63
2019-06-20T08:20:48.411Z,65
2019-06-20T08:21:48.467Z,65
2019-06-20T08:22:48.520Z,65
2019-06-20T08:23:48.477Z,64
2019-06-20T08:24:48.525Z,64
2019-06-20T08:25:48.555Z,65
2019-06-20T08:26:48.648Z,65
2019-06-20T08:27:48.642Z,65
2019-06-20T08:28:48.681Z,64
2019-06-20T08:29:48.717Z,64
2019-06-20T08:30:48.765Z,62
2019-06-20T08:31:48.775Z,61
2019-06-20T08:32:48.751Z,59
2019-06-20T08:33:48.775Z,56
2019-06-20T08:34:48.823Z,59
2019-06-20T08:35:48.886Z,60
2019-06-20T08:36:48.887Z,60
2019-06-20T08:37:48.918Z,60
2019-06-20T08:38:48.936Z,59
2019-06-20T08:39:49.022Z,58
2019-06-20T08:40:49.061Z,60
2019-06-20T08:41:49.036Z,61
2019-06-20T08:42:49.068Z,59
2019-06-20T08:43:49.119Z,58
2019-06-20T08:44:49.114Z,59
2019-06-20T08:45:49.141Z,59
2019-06-20T08:46:49.175Z,59
2019-06-20T08:47:49.231Z,59
2019-06-20T08:48:49.241Z,60
2019-06-20T08:49:49.260Z,58
2019-06-20T08:50:49.286Z,60
2019-06-20T08:51:49.299Z,60
2019-06-20T08:52:49.321Z,57
2019-06-20T08:53:49.333Z,58
2019-06-20T08:54:49.330Z,60
2019-06-20T08:55:49.453Z,62
2019-06-20T08:56:49.383Z,64
2019-06-20T08:57:49.390Z,62
2019-06-20T08:58:49.424Z,62
2019-06-20T08:59:49.424Z,62
2019-06-20T09:00:49.501Z,62
2019-06-20T09:01:49.492Z,63
2019-06-20T09:02:49.543Z,63
2019-06-20T09:03:49.484Z,63
2019-06-20T09:04:49.486Z,63
2019-06-20T09:05:49.560Z,64
2019-06-20T09:06:50.013Z,63
2019-06-20T09:07:49.568Z,63
2019-06-20T09:08:49.559Z,64
2019-06-20T09:09:49.548Z,64
2019-06-20T09:10:49.590Z,63
2019-06-20T09:11:49.548Z,62
2019-06-20T09:12:49.567Z,64
2019-06-20T09:13:49.583Z,65
2019-06-20T09:14:52.383Z,66
2019-06-20T09:15:49.569Z,65
2019-06-20T09:16:49.567Z,66
2019-06-20T09:17:49.636Z,65
2019-06-20T09:18:49.703Z,62
2019-06-20T09:19:49.738Z,63
2019-06-20T09:20:49.778Z,66
2019-06-20T09:21:49.794Z,66
2019-06-20T09:22:49.879Z,64
2019-06-20T09:23:52.342Z,62
2019-06-20T09:24:49.980Z,63
2019-06-20T09:25:50.860Z,64
2019-06-20T09:26:51.115Z,63
2019-06-20T09:27:50.144Z,64
2019-06-20T09:28:50.925Z,64
2019-06-20T09:29:51.552Z,66
2019-06-20T09:30:50.448Z,66
2019-06-20T09:31:52.442Z,67
2019-06-20T09:32:52.184Z,65
2019-06-20T09:33:52.076Z,65
2019-06-20T09:34:51.521Z,65
2019-06-20T09:35:52.129Z,64
2019-06-20T09:36:51.914Z,67
2019-06-20T09:37:50.846Z,66
2019-06-20T09:38:52.067Z,66
2019-06-20T09:39:51.666Z,64
2019-06-20T09:40:51.786Z,66
2019-06-20T09:41:51.514Z,63
2019-06-20T09:42:51.633Z,62
2019-06-20T09:43:51.417Z,62
2019-06-20T09:44:51.403Z,59
2019-06-20T09:45:52.536Z,59
2019-06-20T09:46:52.309Z,60
2019-06-20T09:47:52.176Z,62
2019-06-20T09:48:52.451Z,60
2019-06-20T09:49:54.050Z,58
2019-06-20T09:50:52.857Z,60
2019-06-20T09:51:52.139Z,57
2019-06-20T09:52:51.497Z,54
2019-06-20T09:53:51.846Z,53
2019-06-20T09:54:51.704Z,53
2019-06-20T09:55:51.771Z,59
2019-06-20T09:56:53.444Z,53
2019-06-20T09:57:51.991Z,52
2019-06-20T09:58:51.547Z,55
2019-06-20T10:00:00.219Z,53
2019-06-20T10:00:52.770Z,50
2019-06-20T10:01:53.374Z,53
2019-06-20T10:02:52.376Z,53
2019-06-20T10:03:52.427Z,51
2019-06-20T10:04:52.344Z,49
2019-06-20T10:05:52.428Z,49
2019-06-20T10:06:52.291Z,49
2019-06-20T10:07:52.248Z,46
2019-06-20T10:08:52.335Z,49
2019-06-20T10:09:52.065Z,51
2019-06-20T10:10:52.394Z,46
2019-06-20T10:11:52.029Z,49
2019-06-20T10:12:52.029Z,52
2019-06-20T10:13:52.249Z,49
2019-06-20T10:14:52.092Z,48
2019-06-20T10:15:53.466Z,48
2019-06-20T10:16:54.032Z,49
2019-06-20T10:17:52.213Z,48
2019-06-20T10:18:52.402Z,45
2019-06-20T10:19:52.304Z,47
2019-06-20T10:20:53.064Z,47
2019-06-20T10:21:53.771Z,45
2019-06-20T10:22:53.022Z,47
2019-06-20T10:23:52.394Z,46
2019-06-20T10:24:53.514Z,44
2019-06-20T10:25:53.652Z,43
2019-06-20T10:26:53.318Z,45
2019-06-20T10:27:53.404Z,46
2019-06-20T10:28:54.819Z,41
2019-06-20T10:29:53.483Z,41
2019-06-20T10:30:53.398Z,38
2019-06-20T10:31:53.148Z,38
2019-06-20T10:32:53.165Z,39
2019-06-20T10:33:52.676Z,42
2019-06-20T10:34:53.738Z,40
2019-06-20T10:35:52.760Z,42
2019-06-20T10:36:52.750Z,40
2019-06-20T10:37:53.131Z,39
2019-06-20T10:38:52.826Z,42
2019-06-20T10:39:52.824Z,40
2019-06-20T10:40:53.356Z,41
2019-06-20T10:41:52.885Z,39
2019-06-20T10:42:53.226Z,38
2019-06-20T10:43:52.932Z,38
2019-06-20T10:44:52.957Z,37
2019-06-20T10:45:53.024Z,37
2019-06-20T10:46:53.049Z,38
2019-06-20T10:47:53.186Z,38
2019-06-20T10:48:53.034Z,37
2019-06-20T10:49:53.079Z,36
2019-06-20T10:50:53.098Z,37
2019-06-20T10:51:53.153Z,35
2019-06-20T10:52:53.115Z,35
2019-06-20T10:53:53.388Z,35
2019-06-20T10:54:53.155Z,37
2019-06-20T10:55:53.186Z,37
2019-06-20T10:56:53.229Z,38
2019-06-20T10:57:53.182Z,38
2019-06-20T10:58:53.202Z,37
2019-06-20T10:59:53.222Z,35
2019-06-20T11:00:53.948Z,36
2019-06-20T11:01:53.390Z,38
2019-06-20T11:02:53.485Z,37
2019-06-20T11:03:53.422Z,39
2019-06-20T11:04:53.397Z,38
2019-06-20T11:05:53.405Z,38
2019-06-20T11:06:53.389Z,40
2019-06-20T11:07:53.313Z,37
2019-06-20T11:08:54.309Z,39
2019-06-20T11:09:53.340Z,38
2019-06-20T11:10:55.917Z,40
2019-06-20T11:11:53.405Z,39
2019-06-20T11:12:56.104Z,36
2019-06-20T11:13:53.549Z,38
2019-06-20T11:14:53.335Z,36
2019-06-20T11:15:55.927Z,38
2019-06-20T11:16:53.325Z,39
2019-06-20T11:17:56.274Z,39
2019-06-20T11:18:53.436Z,37
2019-06-20T11:19:53.410Z,35
2019-06-20T11:20:53.469Z,38
2019-06-20T11:21:53.524Z,37
2019-06-20T11:22:53.766Z,35
2019-06-20T11:23:53.617Z,36
2019-06-20T11:24:53.662Z,38
2019-06-20T11:25:53.698Z,37
2019-06-20T11:26:53.752Z,37
2019-06-20T11:27:53.787Z,37
2019-06-20T11:28:53.840Z,35
2019-06-20T11:29:53.863Z,36
2019-06-20T11:31:00.036Z,38
2019-06-20T11:31:54.003Z,38
2019-06-20T11:32:54.040Z,40
2019-06-20T11:33:54.076Z,39
2019-06-20T11:34:54.102Z,39
2019-06-20T11:35:54.191Z,37
2019-06-20T11:36:54.274Z,38
2019-06-20T11:37:54.247Z,39
2019-06-20T11:38:54.258Z,38
2019-06-20T11:39:54.320Z,42
2019-06-20T11:40:54.378Z,41
2019-06-20T11:41:54.456Z,39
2019-06-20T11:42:54.455Z,39
2019-06-20T11:43:54.526Z,41
2019-06-20T11:44:54.599Z,39
2019-06-20T11:45:54.615Z,40
2019-06-20T11:46:54.709Z,40
2019-06-20T11:47:54.750Z,41
2019-06-20T11:48:54.789Z,41
2019-06-20T11:49:55.080Z,42
2019-06-20T11:50:54.849Z,42
2019-06-20T11:51:55.024Z,41
2019-06-20T11:52:54.967Z,40
2019-06-20T11:53:55.006Z,42
2019-06-20T11:54:55.020Z,44
2019-06-20T11:55:55.065Z,42
2019-06-20T11:56:55.171Z,43
2019-06-20T11:57:55.178Z,41
2019-06-20T11:58:55.206Z,41
2019-06-20T11:59:55.901Z,43
2019-06-20T12:01:03.393Z,44
2019-06-20T12:01:55.333Z,43
2019-06-20T12:02:55.376Z,44
2019-06-20T12:03:55.409Z,44
2019-06-20T12:04:55.455Z,44
2019-06-20T12:05:55.513Z,43
2019-06-20T12:06:55.575Z,43
2019-06-20T12:07:55.596Z,44
2019-06-20T12:08:55.625Z,45
2019-06-20T12:09:55.601Z,43
2019-06-20T12:10:55.613Z,44
2019-06-20T12:11:55.702Z,45
2019-06-20T12:12:55.731Z,45
2019-06-20T12:13:55.734Z,45
2019-06-20T12:14:55.796Z,46
2019-06-20T12:15:55.807Z,47
2019-06-20T12:16:55.852Z,46
2019-06-20T12:17:55.911Z,46
2019-06-20T12:18:56.026Z,45
2019-06-20T12:19:55.963Z,46
2019-06-20T12:20:56.024Z,47
2019-06-20T12:21:56.024Z,47
2019-06-20T12:22:56.032Z,48
2019-06-20T12:23:56.045Z,49
2019-06-20T12:24:56.076Z,50
2019-06-20T12:25:56.161Z,50
2019-06-20T12:26:56.151Z,49
2019-06-20T12:27:56.187Z,51
2019-06-20T12:28:56.213Z,53
2019-06-20T12:29:56.234Z,52
2019-06-20T12:30:56.272Z,50
2019-06-20T12:31:56.388Z,50
2019-06-20T12:32:56.290Z,51
2019-06-20T12:33:56.314Z,51
2019-06-20T12:34:56.391Z,49
2019-06-20T12:35:56.358Z,50
2019-06-20T12:36:56.361Z,50
2019-06-20T12:37:56.442Z,52
2019-06-20T12:38:56.406Z,52
2019-06-20T12:39:56.437Z,51
2019-06-20T12:40:56.428Z,52
2019-06-20T12:41:56.459Z,52
2019-06-20T12:42:59.631Z,50
2019-06-20T12:43:56.578Z,52
2019-06-20T12:44:56.530Z,52
2019-06-20T12:45:56.558Z,53
2019-06-20T12:46:56.590Z,53
2019-06-20T12:47:56.598Z,54
2019-06-20T12:48:56.648Z,53
2019-06-20T12:49:56.624Z,54
2019-06-20T12:50:56.654Z,55
2019-06-20T12:51:56.660Z,55
2019-06-20T12:52:56.701Z,55
2019-06-20T12:53:57.761Z,56
2019-06-20T12:54:56.722Z,56
2019-06-20T12:55:56.751Z,56
2019-06-20T12:56:56.723Z,57
2019-06-20T12:57:56.736Z,57
2019-06-20T12:58:56.777Z,57
2019-06-20T12:59:56.763Z,57
2019-06-20T13:00:56.755Z,58
2019-06-20T13:01:56.760Z,57
2019-06-20T13:02:56.786Z,57
2019-06-20T13:03:56.761Z,57
2019-06-20T13:04:56.814Z,58
2019-06-20T13:05:56.772Z,57
2019-06-20T13:06:56.827Z,58
2019-06-20T13:07:56.784Z,60
2019-06-20T13:08:56.801Z,62
2019-06-20T13:09:56.807Z,59
2019-06-20T13:10:56.791Z,61
2019-06-20T13:11:56.880Z,62
2019-06-20T13:12:56.884Z,62
2019-06-20T13:13:56.983Z,63
2019-06-20T13:14:56.998Z,66
2019-06-20T13:15:57.046Z,66
2019-06-20T13:16:57.065Z,68
2019-06-20T13:17:57.076Z,66
2019-06-20T13:18:57.101Z,65
2019-06-20T13:19:57.150Z,68
2019-06-20T13:20:57.223Z,69
2019-06-20T13:21:57.272Z,70
2019-06-20T13:22:57.341Z,72
2019-06-20T13:23:57.348Z,72
2019-06-20T13:24:57.428Z,72
2019-06-20T13:25:57.449Z,73
2019-06-20T13:26:57.476Z,73
2019-06-20T13:27:57.504Z,74
2019-06-20T13:29:03.937Z,75
2019-06-20T13:29:57.600Z,75
2019-06-20T13:30:57.575Z,76
2019-06-20T13:32:03.759Z,76
2019-06-20T13:32:57.762Z,76
2019-06-20T13:33:57.765Z,76
2019-06-20T13:34:58.195Z,77
2019-06-20T13:35:57.854Z,77
2019-06-20T13:36:57.888Z,77
2019-06-20T13:37:57.906Z,78
2019-06-20T13:38:59.002Z,79
2019-06-20T13:39:58.033Z,80
2019-06-20T13:40:58.423Z,80
2019-06-20T13:41:58.151Z,80
2019-06-20T13:42:58.094Z,79
2019-06-20T13:43:58.156Z,78
2019-06-20T13:44:58.399Z,79
2019-06-20T13:45:58.535Z,79
2019-06-20T13:46:58.280Z,78
2019-06-20T13:47:58.501Z,75
2019-06-20T13:48:58.286Z,73
2019-06-20T13:49:58.408Z,77
2019-06-20T13:50:58.392Z,78
2019-06-20T13:51:59.193Z,73
2019-06-20T13:52:58.483Z,70
2019-06-20T13:53:58.514Z,70
2019-06-20T13:54:58.720Z,68
2019-06-20T13:55:58.773Z,68
2019-06-20T13:56:58.536Z,69
2019-06-20T13:57:58.586Z,68
2019-06-20T13:58:58.604Z,67
2019-06-20T13:59:58.651Z,70
2019-06-20T14:00:58.736Z,68
2019-06-20T14:02:06.394Z,70
2019-06-20T14:02:58.805Z,71
2019-06-20T14:03:58.806Z,67
2019-06-20T14:04:58.843Z,67
2019-06-20T14:05:58.837Z,70
2019-06-20T14:06:58.886Z,71
2019-06-20T14:07:58.910Z,73
2019-06-20T14:08:58.998Z,74
2019-06-20T14:09:59.032Z,71
2019-06-20T14:10:59.034Z,70
2019-06-20T14:11:59.075Z,72
2019-06-20T14:12:59.505Z,74
2019-06-20T14:13:59.588Z,75
2019-06-20T14:14:59.570Z,72
2019-06-20T14:15:59.150Z,74